EW2516 Weather Reports


time (UTC)temp
C
wind
direction
speed
KPH
gust
KPH
rain 1hr
cm
rain 24hr
cm
rain mn
cm
humidity
%
barometer
mb
20260906232517 13 90 3.2 11.3 0.00 0.23 0.03 94 1022.1
20260906231518 13 113 4.8 12.9 0.00 0.23 0.03 94 1022.0
20260906230518 13 135 1.6 8.0 0.00 0.23 0.03 95 1022.1
20260906225538 13 135 4.8 12.9 0.00 0.23 0.03 95 1022.0
20260906224517 13 113 6.4 11.3 0.00 0.23 0.03 95 1022.1
20260906223518 13 113 4.8 11.3 0.00 0.23 0.03 96 1022.1
20260906222517 13 113 6.4 14.5 0.00 0.23 0.03 96 1022.1
20260906221518 12 90 6.4 14.5 0.00 0.23 0.03 96 1022.0
20260906220538 12 113 3.2 11.3 0.00 0.23 0.03 97 1022.1
20260906215538 12 113 4.8 12.9 0.00 0.23 0.03 97 1022.2
20260906214517 12 68 3.2 8.0 0.00 0.23 0.03 97 1022.3
20260906213517 12 113 4.8 11.3 0.00 0.23 0.03 97 1022.3
20260906212559 12 113 3.2 11.3 0.00 0.23 0.03 97 1022.4
20260906211517 12 113 4.8 11.3 0.00 0.25 0.03 97 1022.2
20260906210517 12 135 1.6 8.0 0.00 0.25 0.03 97 1022.3
20260906205539 12 135 4.8 9.7 0.00 0.25 0.03 97 1022.4
20260906204517 12 113 3.2 9.7 0.00 0.25 0.03 97 1022.4
20260906203517 11 90 4.8 11.3 0.00 0.25 0.03 97 1022.4
20260906202538 11 113 6.4 12.9 0.00 0.25 0.03 97 1022.7
20260906201517 11 113 6.4 11.3 0.00 0.25 0.03 97 1022.5
20260906200517 11 90 8.0 14.5 0.00 0.25 0.03 97 1022.8
20260906195517 11 113 4.8 11.3 0.00 0.25 0.03 97 1022.8
20260906194518 11 90 6.4 11.3 0.00 0.25 0.03 97 1022.8
20260906193518 11 90 4.8 11.3 0.00 0.25 0.03 97 1022.8
20260906192538 11 90 6.4 12.9 0.00 0.25 0.03 97 1022.9
20260906191517 11 90 8.0 12.9 0.00 0.25 0.03 97 1022.9
20260906190518 11 90 8.0 12.9 0.00 0.25 0.03 97 1023.0
20260906185518 10 113 4.8 11.3 0.00 0.25 0.03 97 1022.9
20260906184517 10 90 6.4 12.9 0.00 0.25 0.03 97 1023.1
20260906183518 10 90 8.0 12.9 0.00 0.25 0.03 97 1023.0
20260906182518 10 68 4.8 9.7 0.00 0.25 0.03 97 1023.1
20260906181518 10 90 6.4 11.3 0.00 0.25 0.03 97 1022.9
20260906180518 10 90 6.4 12.9 0.00 0.25 0.03 97 1023.1
20260906175517 10 90 3.2 8.0 0.00 0.25 0.03 97 1023.1
20260906174518 10 90 1.6 4.8 0.00 0.25 0.03 97 1023.3
20260906173517 10 135 3.2 8.0 0.03 0.25 0.03 97 1023.4
20260906172518 10 113 1.6 6.4 0.03 0.25 0.03 97 1023.3
20260906171518 10 90 3.2 8.0 0.03 0.25 0.03 97 1023.2
20260906170518 10 90 3.2 11.3 0.03 0.25 0.03 97 1023.3
20260906165518 10 113 3.2 8.0 0.03 0.25 0.03 97 1023.6
20260906164518 10 90 3.2 8.0 0.03 0.25 0.03 97 1023.7
20260906163517 10 113 3.2 8.0 0.00 0.23 0.00 97 1023.8
20260906162517 9 90 3.2 8.0 0.00 0.23 0.00 97 1023.8
20260906161518 10 90 3.2 9.7 0.00 0.23 0.00 97 1023.9
20260906160538 10 90 3.2 8.0 0.00 0.23 0.00 97 1023.8
20260906155517 10 90 3.2 9.7 0.00 0.23 0.00 97 1023.9
20260906154538 9 0.0 4.8 0.00 0.23 0.00 97 1023.8
20260906153518 9 90 1.6 4.8 0.00 0.23 0.00 97 1023.7
20260906152517 9 0.0 0.0 0.00 0.23 0.00 97 1023.8
20260906151517 9 0.0 0.0 0.00 0.23 0.00 97 1023.7
20260906150537 9 0.0 0.0 0.00 0.23 0.00 97 1023.9
20260906145517 9 0.0 0.0 0.00 0.23 0.00 97 1023.6
20260906144517 9 0.0 0.0 0.00 0.23 0.00 97 1023.4
20260906143518 8 0.0 0.0 0.00 0.23 0.00 97 1023.4
20260906142517 8 0.0 0.0 0.00 0.23 0.00 97 1023.6
20260906141518 8 0.0 0.0 0.00 0.23 0.00 97 1023.5
20260906140517 8 0.0 0.0 0.00 0.23 0.00 97 1024.1
20260906135517 9 180 1.6 3.2 0.00 0.23 0.00 97 1024.0
20260906134517 9 0.0 3.2 0.00 0.23 0.00 97 1024.1
20260906133517 9 180 1.6 4.8 0.00 0.23 0.00 97 1024.2
20260906132517 9 0.0 0.0 0.00 0.23 0.00 97 1024.0
20260906131517 9 0.0 4.8 0.00 0.23 0.00 97 1023.7
20260906130517 9 180 1.6 4.8 0.00 0.23 0.00 97 1023.9
20260906125517 9 0.0 3.2 0.00 0.23 0.00 97 1024.1
20260906124517 9 0.0 3.2 0.00 0.23 0.00 97 1024.1
20260906123517 9 203 1.6 4.8 0.00 0.23 0.00 97 1024.4
20260906122518 9 203 1.6 6.4 0.00 0.23 0.00 97 1024.6
20260906121518 9 203 1.6 6.4 0.00 0.23 0.00 97 1024.9
20260906120517 9 180 4.8 11.3 0.00 0.23 0.00 97 1025.3
20260906115516 9 180 1.6 8.0 0.00 0.23 0.00 97 1025.4
20260906114517 9 180 1.6 4.8 0.00 0.23 0.00 97 1025.4
20260906113517 9 0.0 3.2 0.00 0.23 0.00 97 1025.3
20260906112516 9 203 1.6 4.8 0.00 0.23 0.00 96 1025.6
20260906111518 9 248 4.8 19.3 0.00 0.23 0.00 97 1025.6
20260906110517 9 0.0 4.8 0.00 0.23 0.00 97 1025.6
20260906105516 9 180 1.6 4.8 0.00 0.23 0.00 97 1025.4
20260906104517 9 0.0 3.2 0.00 0.23 0.00 96 1025.4
20260906103516 9 0.0 1.6 0.00 0.23 0.00 96 1024.6
20260906102517 8 0.0 0.0 0.00 0.23 0.00 97 1025.0
20260906101516 8 0.0 1.6 0.00 0.23 0.00 96 1024.8
20260906100517 8 0.0 0.0 0.00 0.23 0.00 96 1024.9
20260906095538 9 135 1.6 4.8 0.00 0.23 0.00 96 1025.5
20260906094517 9 0.0 1.6 0.00 0.23 0.00 96 1025.9
20260906093516 9 0.0 3.2 0.00 0.23 0.00 96 1025.9
20260906092517 9 113 1.6 6.4 0.00 0.23 0.00 96 1026.0
20260906091516 9 113 1.6 4.8 0.00 0.23 0.00 96 1026.1
20260906090517 9 0.0 3.2 0.00 0.23 0.00 96 1026.0
20260906085518 9 113 1.6 16.1 0.00 0.23 0.00 96 1026.2
20260906084537 9 0.0 4.8 0.00 0.23 0.00 96 1026.2
20260906083517 9 0.0 3.2 0.00 0.23 0.00 96 1026.5
20260906082517 9 0.0 0.0 0.00 0.23 0.00 96 1026.2
20260906081518 9 0.0 0.0 0.00 0.23 0.00 96 1026.1
20260906080517 9 0.0 0.0 0.00 0.23 0.00 96 1026.3
20260906075517 9 0.0 0.0 0.00 0.23 0.00 96 1026.3
20260906074516 9 0.0 3.2 0.00 0.23 0.00 96 1026.3
20260906073536 9 0.0 1.6 0.00 0.23 0.00 96 1026.3
20260906072537 9 270 1.6 6.4 0.00 0.23 0.00 96 1026.5
20260906071516 9 248 4.8 6.4 0.00 0.23 0.00 96 1026.5
20260906070517 9 248 3.2 6.4 0.00 0.23 0.00 96 1026.6
20260906065517 9 293 3.2 6.4 0.00 0.23 0.00 96 1026.3
20260906064517 9 293 1.6 4.8 0.00 0.23 0.00 96 1026.3
20260906063517 9 0.0 3.2 0.00 0.23 0.00 96 1026.5
20260906062517 9 293 1.6 3.2 0.00 0.23 0.00 96 1026.5
20260906061516 9 0.0 1.6 0.00 0.23 0.00 96 1026.5
20260906060517 9 0.0 3.2 0.00 0.23 0.00 96 1026.6
20260906055516 9 293 1.6 4.8 0.03 0.23 0.23 96 1026.6
20260906054537 9 293 1.6 4.8 0.05 0.23 0.23 96 1026.6
20260906053515 9 270 1.6 8.0 0.05 0.23 0.23 96 1026.7
20260906052537 9 315 3.2 6.4 0.05 0.23 0.23 96 1026.8
20260906051517 9 315 1.6 4.8 0.05 0.23 0.23 96 1026.6
20260906050516 9 315 1.6 6.4 0.05 0.23 0.23 96 1026.8
20260906045516 9 315 1.6 4.8 0.03 0.23 0.23 96 1026.9
20260906044537 9 315 1.6 4.8 0.03 0.20 0.20 96 1026.8
20260906043516 9 315 1.6 6.4 0.03 0.20 0.20 96 1026.5
20260906042516 9 315 1.6 4.8 0.03 0.20 0.20 96 1026.4
20260906041617 9 315 1.6 4.8 0.03 0.20 0.20 96 1026.3
20260906040516 9 315 1.6 3.2 0.03 0.20 0.20 96 1026.3
20260906035516 9 0.0 1.6 0.05 0.20 0.20 96 1026.1
20260906034517 9 0.0 4.8 0.03 0.18 0.18 96 1026.0
20260906033515 9 0.0 3.2 0.05 0.18 0.18 95 1026.0
20260906032516 9 293 1.6 6.4 0.05 0.18 0.18 95 1025.9
20260906031516 9 293 1.6 4.8 0.05 0.18 0.18 95 1026.0
20260906030515 9 315 1.6 6.4 0.05 0.18 0.18 95 1026.1
20260906025516 9 315 1.6 3.2 0.03 0.15 0.15 95 1026.0
20260906024516 9 0.0 3.2 0.05 0.15 0.15 95 1025.9
20260906023517 10 315 1.6 3.2 0.03 0.15 0.15 95 1025.9
20260906022516 9 0.0 3.2 0.05 0.15 0.15 95 1025.8
20260906021536 10 315 1.6 4.8 0.05 0.15 0.15 95 1025.7
20260906020517 10 0.0 6.4 0.08 0.15 0.15 95 1025.9
20260906015516 10 0.0 3.2 0.10 0.15 0.15 95 1025.8
20260906014516 10 0.0 3.2 0.08 0.13 0.13 95 1025.8
20260906013516 10 0.0 4.8 0.08 0.13 0.13 95 1025.8
20260906012518 10 0.0 0.0 0.08 0.10 0.10 95 1025.7
20260906011518 10 338 1.6 4.8 0.08 0.10 0.10 94 1025.6
20260906010519 10 0.0 1.6 0.05 0.05 0.05 94 1025.5
20260906005518 10 0.0 4.8 0.03 0.05 0.05 94 1025.5
20260906004518 10 0.0 1.6 0.03 0.05 0.05 94 1025.4
20260906003518 10 0.0 3.2 0.03 0.05 0.05 94 1025.4
20260906002539 10 338 1.6 8.0 0.00 0.03 0.03 94 1025.4
20260906001535 10 338 1.6 8.0 0.00 0.03 0.03 93 1025.4
20260906000521 10 338 1.6 8.0 0.00 0.03 0.03 94 1025.4
20260905235517 9 0 1.6 6.4 0.00 0.03 0.03 93 1025.4
20260905234517 9 0.0 6.4 0.00 0.03 0.03 93 1025.4
20260905233517 9 315 3.2 8.0 0.00 0.03 0.03 93 1025.4